createdAt,value
2023-05-08T00:00:24.521Z,4.89
2023-05-08T00:04:29.120Z,4.87
2023-05-08T00:09:00.603Z,4.85
2023-05-08T00:13:44.911Z,4.84
2023-05-08T00:18:12.992Z,4.79
2023-05-08T00:22:52.656Z,4.75
2023-05-08T00:27:25.443Z,4.73
2023-05-08T00:32:09.761Z,4.73
2023-05-08T00:36:44.741Z,4.70
2023-05-08T00:40:52.790Z,4.70
2023-05-08T00:45:17.776Z,4.68
2023-05-08T00:49:42.057Z,4.64
2023-05-08T00:54:06.382Z,4.67
2023-05-08T00:58:31.796Z,4.63
2023-05-08T01:02:39.757Z,4.63
2023-05-08T01:07:06.043Z,4.67
2023-05-08T01:11:29.084Z,4.66
2023-05-08T01:15:55.136Z,4.66
2023-05-08T01:20:51.448Z,4.69
2023-05-08T01:25:36.479Z,4.67
2023-05-08T01:29:47.797Z,4.64
2023-05-08T01:34:34.793Z,4.63
2023-05-08T01:39:15.560Z,4.59
2023-05-08T01:44:11.820Z,4.63
2023-05-08T01:48:40.531Z,4.62
2023-05-08T01:53:04.525Z,4.62
2023-05-08T01:57:28.969Z,4.61
2023-05-08T02:01:52.880Z,4.60
2023-05-08T02:05:57.451Z,4.62
2023-05-08T02:10:36.392Z,4.61
2023-05-08T02:15:21.389Z,4.62
2023-05-08T02:19:47.390Z,4.63
2023-05-08T02:24:20.815Z,4.63
2023-05-08T02:29:04.817Z,4.63
2023-05-08T02:33:48.875Z,4.62
2023-05-08T02:38:32.994Z,4.63
2023-05-08T02:42:56.921Z,4.62
2023-05-08T02:47:37.204Z,4.60
2023-05-08T02:52:06.829Z,4.61
2023-05-08T02:56:30.987Z,4.63
2023-05-08T03:01:16.235Z,4.61
2023-05-08T03:06:00.316Z,4.60
2023-05-08T03:10:44.662Z,4.59
2023-05-08T03:15:35.640Z,4.57
2023-05-08T03:19:53.337Z,4.55
2023-05-08T03:24:18.537Z,4.52
2023-05-08T03:28:47.979Z,4.48
2023-05-08T03:32:56.371Z,4.45
2023-05-08T03:37:40.767Z,4.44
2023-05-08T03:42:20.247Z,4.44
2023-05-08T03:47:04.613Z,4.43
2023-05-08T03:51:33.053Z,4.39
2023-05-08T03:56:04.380Z,4.44
2023-05-08T04:00:36.457Z,4.41
2023-05-08T04:05:12.953Z,4.47
2023-05-08T04:09:53.686Z,4.49
2023-05-08T04:14:10.717Z,4.52
2023-05-08T04:18:24.401Z,4.57
2023-05-08T04:23:10.668Z,4.65
2023-05-08T04:27:44.926Z,4.70
2023-05-08T04:32:19.318Z,4.73
2023-05-08T04:36:47.576Z,4.76
2023-05-08T04:41:11.951Z,4.88
2023-05-08T04:45:24.034Z,5.00
2023-05-08T04:50:08.350Z,5.11
2023-05-08T04:54:52.569Z,5.24
2023-05-08T04:59:21.066Z,5.34
2023-05-08T05:04:06.302Z,5.45
2023-05-08T05:08:52.781Z,5.51
2023-05-08T05:13:36.974Z,5.63
2023-05-08T05:18:22.357Z,5.73
2023-05-08T05:23:06.581Z,5.87
2023-05-08T05:27:50.931Z,6.05
2023-05-08T05:32:35.322Z,6.14
2023-05-08T05:37:00.820Z,6.29
2023-05-08T05:41:20.442Z,6.44
2023-05-08T05:45:46.668Z,6.61
2023-05-08T05:50:30.735Z,6.80
2023-05-08T05:55:00.714Z,6.87
2023-05-08T05:59:27.721Z,6.87
2023-05-08T06:03:53.189Z,6.96
2023-05-08T06:08:13.217Z,7.12
2023-05-08T06:12:37.154Z,7.34
2023-05-08T06:16:48.993Z,7.19
2023-05-08T06:21:14.912Z,7.20
2023-05-08T06:25:46.594Z,7.56
2023-05-08T06:30:30.544Z,8.01
2023-05-08T06:34:46.638Z,8.24
2023-05-08T06:39:15.044Z,8.71
2023-05-08T06:43:58.886Z,8.85
2023-05-08T06:48:07.586Z,8.96
2023-05-08T06:52:25.993Z,9.35
2023-05-08T06:56:30.297Z,9.73
2023-05-08T07:00:47.880Z,10.39
2023-05-08T07:04:33.753Z,10.45
2023-05-08T07:08:48.718Z,10.09
2023-05-08T07:13:06.127Z,10.33
2023-05-08T07:17:19.537Z,10.30
2023-05-08T07:20:58.689Z,10.73
2023-05-08T07:24:26.291Z,10.87
2023-05-08T07:28:32.291Z,10.82
2023-05-08T07:32:38.310Z,10.52
2023-05-08T07:36:44.328Z,10.29
2023-05-08T07:40:28.236Z,9.92
2023-05-08T07:44:40.559Z,9.98
2023-05-08T07:48:55.197Z,10.00
2023-05-08T07:53:38.984Z,9.81
2023-05-08T07:57:54.955Z,9.80
2023-05-08T08:01:59.307Z,10.11
2023-05-08T08:06:43.146Z,10.10
2023-05-08T08:10:47.014Z,10.08
2023-05-08T08:14:51.352Z,10.01
2023-05-08T08:19:06.811Z,9.95
2023-05-08T08:23:10.866Z,9.94
2023-05-08T08:27:19.095Z,10.16
2023-05-08T08:31:28.270Z,10.18
2023-05-08T08:35:30.379Z,10.16
2023-05-08T08:39:39.348Z,10.02
2023-05-08T08:43:47.334Z,9.93
2023-05-08T08:47:42.272Z,10.41
2023-05-08T08:51:47.608Z,10.47
2023-05-08T08:56:08.702Z,10.27
2023-05-08T09:00:35.836Z,10.01
2023-05-08T09:04:40.800Z,9.68
2023-05-08T09:08:49.603Z,9.35
2023-05-08T09:13:09.183Z,9.52
2023-05-08T09:16:54.520Z,9.76
2023-05-08T09:21:18.529Z,9.81
2023-05-08T09:25:54.738Z,10.00
2023-05-08T09:30:44.494Z,10.08
2023-05-08T09:35:14.354Z,10.15
2023-05-08T09:39:53.147Z,10.19
2023-05-08T09:44:14.764Z,10.23
2023-05-08T09:48:24.706Z,10.18
2023-05-08T09:52:52.714Z,10.18
2023-05-08T09:57:32.667Z,10.25
2023-05-08T10:01:40.969Z,10.40
2023-05-08T10:06:09.700Z,10.36
2023-05-08T10:10:52.867Z,10.48
2023-05-08T10:14:57.707Z,10.38
2023-05-08T10:19:07.262Z,10.32
2023-05-08T10:23:15.826Z,10.08
2023-05-08T10:28:06.079Z,10.11
2023-05-08T10:32:22.064Z,10.11
2023-05-08T10:36:08.432Z,10.38
2023-05-08T10:40:10.899Z,10.61
2023-05-08T10:44:24.848Z,10.87
2023-05-08T10:48:47.866Z,10.84
2023-05-08T10:53:43.413Z,10.77
2023-05-08T10:57:56.332Z,10.83
2023-05-08T11:01:55.025Z,10.96
2023-05-08T11:06:15.797Z,11.33
2023-05-08T11:10:43.205Z,11.38
2023-05-08T11:14:34.918Z,11.48
2023-05-08T11:22:57.494Z,11.47
2023-05-08T11:27:22.644Z,11.60
2023-05-08T11:31:12.466Z,11.77
2023-05-08T11:35:17.117Z,11.83
2023-05-08T11:39:36.756Z,12.08
2023-05-08T11:43:19.399Z,11.99
2023-05-08T11:46:52.403Z,12.47
2023-05-08T11:50:18.709Z,12.42
2023-05-08T11:53:47.838Z,12.31
2023-05-08T11:57:24.976Z,12.11
2023-05-08T12:01:07.374Z,12.00
2023-05-08T12:05:12.883Z,11.68
2023-05-08T12:09:15.475Z,11.60
2023-05-08T12:13:32.161Z,11.66
2023-05-08T12:17:39.955Z,11.82
2023-05-08T12:21:22.253Z,12.05
2023-05-08T12:24:51.931Z,12.25
2023-05-08T12:28:17.643Z,12.47
2023-05-08T12:31:52.428Z,12.45
2023-05-08T12:35:31.664Z,12.52
2023-05-08T12:39:09.251Z,12.65
2023-05-08T12:42:50.951Z,12.65
2023-05-08T12:46:18.026Z,12.54
2023-05-08T12:49:57.765Z,12.54
2023-05-08T12:53:25.025Z,12.31
2023-05-08T12:57:01.419Z,12.21
2023-05-08T13:00:39.388Z,12.29
2023-05-08T13:04:37.932Z,12.36
2023-05-08T13:09:26.577Z,12.30
2023-05-08T13:12:52.171Z,12.06
2023-05-08T13:16:36.150Z,12.17
2023-05-08T13:20:35.923Z,12.18
2023-05-08T13:24:05.260Z,12.01
2023-05-08T13:27:43.537Z,11.82
2023-05-08T13:31:27.641Z,11.67
2023-05-08T13:35:13.530Z,11.53
2023-05-08T13:39:16.729Z,11.26
2023-05-08T13:43:04.537Z,11.67
2023-05-08T13:47:07.091Z,12.02
2023-05-08T13:50:43.908Z,12.23
2023-05-08T13:54:11.372Z,12.35
2023-05-08T13:57:35.982Z,12.53
2023-05-08T14:01:13.827Z,12.51
2023-05-08T14:05:00.344Z,12.47
2023-05-08T14:08:47.163Z,12.72
2023-05-08T14:12:16.309Z,12.98
2023-05-08T14:16:08.841Z,13.44
2023-05-08T14:19:52.730Z,13.90
2023-05-08T14:23:27.920Z,13.13
2023-05-08T14:26:54.312Z,12.36
2023-05-08T14:30:21.850Z,12.19
2023-05-08T14:33:46.473Z,12.27
2023-05-08T14:37:12.769Z,12.08
2023-05-08T14:40:40.582Z,12.14
2023-05-08T14:44:02.354Z,12.30
2023-05-08T14:47:30.458Z,12.43
2023-05-08T14:51:16.082Z,12.58
2023-05-08T14:54:59.704Z,13.04
2023-05-08T14:58:42.680Z,13.19
2023-05-08T15:02:04.708Z,12.72
2023-05-08T15:05:30.669Z,12.81
2023-05-08T15:09:16.055Z,12.85
2023-05-08T15:13:06.617Z,12.73
2023-05-08T15:16:29.732Z,12.57
2023-05-08T15:19:56.532Z,12.71
2023-05-08T15:23:43.696Z,12.75
2023-05-08T15:27:21.653Z,12.44
2023-05-08T15:31:17.416Z,12.06
2023-05-08T15:35:02.866Z,11.75
2023-05-08T15:38:35.737Z,11.79
2023-05-08T15:42:05.791Z,11.72
2023-05-08T15:45:31.585Z,11.87
2023-05-08T15:49:01.935Z,11.99
2023-05-08T15:52:36.210Z,11.76
2023-05-08T15:56:24.685Z,11.45
2023-05-08T15:59:57.940Z,11.22
2023-05-08T16:03:37.797Z,11.17
2023-05-08T16:07:22.163Z,10.97
2023-05-08T16:11:08.925Z,11.22
2023-05-08T16:15:12.445Z,11.21
2023-05-08T16:19:17.225Z,11.44
2023-05-08T16:23:16.218Z,11.37
2023-05-08T16:26:37.942Z,11.28
2023-05-08T16:30:17.622Z,11.22
2023-05-08T16:34:20.332Z,10.82
2023-05-08T16:38:09.904Z,10.24
2023-05-08T16:42:14.047Z,10.18
2023-05-08T16:46:09.455Z,10.20
2023-05-08T16:49:55.304Z,10.27
2023-05-08T16:53:58.135Z,10.23
2023-05-08T16:58:05.778Z,10.65
2023-05-08T17:02:26.307Z,11.64
2023-05-08T17:06:17.755Z,12.34
2023-05-08T17:09:53.400Z,12.45
2023-05-08T17:13:26.392Z,12.73
2023-05-08T17:16:48.720Z,12.66
2023-05-08T17:20:47.949Z,11.85
2023-05-08T17:24:15.260Z,11.20
2023-05-08T17:27:57.935Z,11.53
2023-05-08T17:31:43.899Z,11.78
2023-05-08T17:35:30.048Z,11.93
2023-05-08T17:38:59.408Z,11.84
2023-05-08T17:42:21.286Z,11.07
2023-05-08T17:46:15.443Z,10.32
2023-05-08T17:50:18.217Z,9.86
2023-05-08T17:54:22.907Z,9.29
2023-05-08T17:58:29.721Z,8.84
2023-05-08T18:02:52.172Z,8.59
2023-05-08T18:07:14.734Z,8.37
2023-05-08T18:11:21.670Z,8.07
2023-05-08T18:15:19.769Z,7.95
2023-05-08T18:19:22.856Z,7.83
2023-05-08T18:23:49.357Z,7.72
2023-05-08T18:28:19.689Z,7.56
2023-05-08T18:32:38.789Z,7.50
2023-05-08T18:37:01.095Z,7.39
2023-05-08T18:41:38.877Z,7.30
2023-05-08T18:46:26.119Z,7.22
2023-05-08T18:50:52.452Z,7.12
2023-05-08T18:55:27.380Z,7.02
2023-05-08T18:59:30.068Z,6.93
2023-05-08T19:03:52.270Z,6.89
2023-05-08T19:08:36.580Z,6.88
2023-05-08T19:12:59.451Z,6.83
2023-05-08T19:17:02.223Z,6.77
2023-05-08T19:21:33.475Z,6.71
2023-05-08T19:25:59.952Z,6.64
2023-05-08T19:30:22.557Z,6.61
2023-05-08T19:34:45.720Z,6.58
2023-05-08T19:39:25.913Z,6.50
2023-05-08T19:44:03.668Z,6.40
2023-05-08T19:48:33.981Z,6.34
2023-05-08T19:52:57.474Z,6.26
2023-05-08T19:57:24.178Z,6.21
2023-05-08T20:01:51.234Z,6.14
2023-05-08T20:06:33.993Z,6.08
2023-05-08T20:11:17.181Z,6.01
2023-05-08T20:15:09.096Z,5.90
2023-05-08T20:19:51.387Z,5.79
2023-05-08T20:23:55.751Z,5.73
2023-05-08T20:28:19.377Z,5.60
2023-05-08T20:32:54.858Z,5.46
2023-05-08T20:37:21.448Z,5.37
2023-05-08T20:41:39.833Z,5.31
2023-05-08T20:46:03.988Z,5.24
2023-05-08T20:50:27.807Z,5.22
2023-05-08T20:54:46.740Z,5.20
2023-05-08T20:59:29.611Z,5.19
2023-05-08T21:03:57.217Z,5.18
2023-05-08T21:08:41.254Z,5.13
2023-05-08T21:13:24.342Z,5.03
2023-05-08T21:24:20.526Z,4.90
2023-05-08T21:29:06.950Z,4.84
2023-05-08T21:33:46.103Z,4.83
2023-05-08T21:38:30.653Z,4.83
2023-05-08T21:43:19.863Z,4.80
2023-05-08T21:48:06.519Z,4.82
2023-05-08T21:52:50.229Z,4.66
2023-05-08T21:57:15.374Z,4.52
2023-05-08T22:01:43.678Z,4.47
2023-05-08T22:06:27.755Z,4.48
2023-05-08T22:10:47.803Z,4.44
2023-05-08T22:15:02.497Z,4.35
2023-05-08T22:19:46.804Z,4.13
2023-05-08T22:24:23.586Z,3.97
2023-05-08T22:29:08.705Z,3.84
2023-05-08T22:33:20.821Z,3.79
2023-05-08T22:38:05.512Z,3.80
2023-05-08T22:42:50.991Z,3.80
2023-05-08T22:47:16.892Z,3.76
2023-05-08T23:03:22.965Z,4.25
2023-05-08T23:08:06.863Z,4.31
2023-05-08T23:12:32.107Z,4.35
2023-05-08T23:17:16.375Z,4.25
2023-05-08T23:22:00.770Z,4.15
2023-05-08T23:26:27.852Z,4.06
2023-05-08T23:30:55.801Z,4.02
2023-05-08T23:35:21.934Z,4.00
2023-05-08T23:39:29.908Z,3.93
2023-05-08T23:43:44.166Z,3.88
2023-05-08T23:48:31.554Z,3.90
2023-05-08T23:53:15.611Z,3.91
2023-05-08T23:57:47.082Z,3.90
